createdAt,value
2022-12-03T00:00:50.623Z,31.38
2022-12-03T00:03:18.171Z,35.13
2022-12-03T00:05:49.177Z,34.90
2022-12-03T00:08:16.902Z,34.28
2022-12-03T00:10:44.142Z,33.47
2022-12-03T00:13:11.316Z,36.88
2022-12-03T00:15:38.543Z,37.45
2022-12-03T00:18:05.737Z,37.13
2022-12-03T00:20:32.937Z,40.10
2022-12-03T00:23:00.156Z,44.42
2022-12-03T00:25:27.388Z,41.75
2022-12-03T00:27:54.599Z,44.90
2022-12-03T00:30:21.752Z,39.92
2022-12-03T00:32:48.881Z,30.38
2022-12-03T00:35:16.420Z,39.33
2022-12-03T00:37:43.606Z,43.90
2022-12-03T00:40:11.551Z,43.03
2022-12-03T00:42:38.709Z,45.45
2022-12-03T00:45:06.160Z,47.05
2022-12-03T00:47:33.332Z,46.78
2022-12-03T00:50:00.467Z,42.08
2022-12-03T00:52:27.597Z,50.58
2022-12-03T00:54:54.984Z,54.50
2022-12-03T00:57:22.378Z,46.60
2022-12-03T00:59:50.710Z,51.85
2022-12-03T01:02:17.943Z,46.58
2022-12-03T01:04:45.284Z,51.83
2022-12-03T01:07:12.535Z,54.40
2022-12-03T01:09:39.726Z,55.25
2022-12-03T01:12:06.911Z,51.63
2022-12-03T01:14:34.333Z,51.97
2022-12-03T01:17:01.465Z,49.70
2022-12-03T01:19:28.651Z,47.08
2022-12-03T01:21:55.936Z,48.47
2022-12-03T01:24:23.158Z,51.83
2022-12-03T01:26:50.285Z,49.63
2022-12-03T01:29:17.565Z,50.88
2022-12-03T01:32:03.309Z,48.58
2022-12-03T01:34:30.560Z,45.97
2022-12-03T01:36:57.893Z,45.65
2022-12-03T01:39:25.121Z,46.78
2022-12-03T01:41:53.357Z,43.88
2022-12-03T01:44:24.579Z,45.35
2022-12-03T01:46:52.681Z,45.85
2022-12-03T01:49:21.273Z,47.85
2022-12-03T01:51:49.753Z,44.53
2022-12-03T01:54:18.964Z,48.65
2022-12-03T01:56:46.894Z,49.83
2022-12-03T01:59:23.981Z,43.58
2022-12-03T02:01:51.319Z,54.17
2022-12-03T02:04:19.818Z,43.78
2022-12-03T02:06:47.082Z,48.08
2022-12-03T02:09:14.624Z,49.72
2022-12-03T02:11:44.376Z,49.15
2022-12-03T02:14:12.960Z,46.95
2022-12-03T02:16:41.998Z,47.42
2022-12-03T02:19:35.568Z,50.90
2022-12-03T02:22:02.706Z,50.20
2022-12-03T02:24:32.359Z,48.55
2022-12-03T02:26:59.635Z,49.28
2022-12-03T02:29:26.846Z,53.47
2022-12-03T02:31:54.144Z,49.15
2022-12-03T02:34:41.334Z,51.90
2022-12-03T02:37:09.706Z,49.80
2022-12-03T02:39:38.399Z,49.35
2022-12-03T02:42:24.698Z,50.85
2022-12-03T02:44:52.461Z,49.50
2022-12-03T02:47:21.347Z,50.75
2022-12-03T02:49:48.630Z,55.05
2022-12-03T02:52:15.831Z,51.85
2022-12-03T02:54:43.049Z,48.45
2022-12-03T02:57:10.303Z,54.17
2022-12-03T02:59:37.455Z,52.10
2022-12-03T03:02:04.623Z,53.22
2022-12-03T03:04:31.856Z,50.10
2022-12-03T03:06:59.419Z,56.47
2022-12-03T03:09:26.687Z,48.75
2022-12-03T03:11:53.894Z,55.28
2022-12-03T03:14:21.132Z,48.00
2022-12-03T03:16:55.857Z,47.90
2022-12-03T03:19:24.617Z,52.17
2022-12-03T03:21:51.943Z,52.17
2022-12-03T03:24:19.335Z,52.80
2022-12-03T03:26:46.595Z,51.30
2022-12-03T03:29:13.768Z,46.65
2022-12-03T03:31:41.477Z,43.58
2022-12-03T03:34:08.815Z,50.33
2022-12-03T03:36:36.303Z,52.30
2022-12-03T03:39:04.801Z,51.38
2022-12-03T03:41:32.338Z,55.72
2022-12-03T03:43:59.694Z,52.17
2022-12-03T03:46:28.084Z,50.35
2022-12-03T03:48:55.797Z,51.42
2022-12-03T03:51:23.044Z,51.05
2022-12-03T03:53:50.925Z,53.78
2022-12-03T03:56:19.807Z,52.67
2022-12-03T03:58:46.968Z,51.33
2022-12-03T04:01:14.851Z,51.88
2022-12-03T04:03:42.117Z,52.03
2022-12-03T04:06:09.669Z,52.47
2022-12-03T04:08:36.885Z,52.00
2022-12-03T04:11:22.696Z,56.20
2022-12-03T04:13:49.889Z,50.38
2022-12-03T04:16:17.177Z,59.45
2022-12-03T04:18:44.508Z,49.97
2022-12-03T04:21:34.154Z,53.65
2022-12-03T04:24:01.369Z,58.20
2022-12-03T04:26:47.628Z,53.72
2022-12-03T04:29:14.827Z,65.88
2022-12-03T04:32:00.626Z,63.97
2022-12-03T04:34:46.679Z,57.72
2022-12-03T04:37:13.880Z,60.50
2022-12-03T04:39:41.340Z,60.35
2022-12-03T04:42:08.618Z,62.97
2022-12-03T04:44:36.416Z,63.25
2022-12-03T04:47:09.879Z,59.78
2022-12-03T04:49:38.518Z,62.67
2022-12-03T04:52:05.785Z,63.13
2022-12-03T04:54:33.049Z,62.75
2022-12-03T04:57:00.361Z,63.40
2022-12-03T04:59:27.530Z,69.13
2022-12-03T05:01:54.811Z,67.38
2022-12-03T05:04:22.136Z,69.78
2022-12-03T05:06:49.323Z,65.47
2022-12-03T05:09:16.860Z,71.50
2022-12-03T05:11:44.374Z,65.72
2022-12-03T05:14:11.908Z,70.43
2022-12-03T05:16:39.147Z,61.08
2022-12-03T05:19:07.864Z,64.60
2022-12-03T05:21:35.244Z,64.93
2022-12-03T05:24:02.663Z,65.53
2022-12-03T05:26:30.025Z,68.70
2022-12-03T05:28:57.285Z,67.97
2022-12-03T05:31:24.508Z,66.78
2022-12-03T05:33:51.799Z,62.90
2022-12-03T05:36:19.114Z,70.82
2022-12-03T05:38:46.383Z,63.67
2022-12-03T05:41:32.217Z,67.78
2022-12-03T05:43:59.466Z,71.03
2022-12-03T05:46:26.617Z,66.45
2022-12-03T05:48:53.841Z,64.95
2022-12-03T05:51:20.987Z,60.97
2022-12-03T05:53:48.210Z,75.75
2022-12-03T05:56:15.331Z,64.72
2022-12-03T05:58:42.499Z,70.32
2022-12-03T06:01:09.670Z,63.97
2022-12-03T06:03:36.940Z,57.17
2022-12-03T06:06:04.302Z,66.60
2022-12-03T06:08:31.503Z,69.70
2022-12-03T06:10:58.653Z,67.88
2022-12-03T06:13:25.950Z,68.32
2022-12-03T06:15:53.257Z,65.90
2022-12-03T06:18:20.491Z,67.28
2022-12-03T06:20:47.597Z,72.93
2022-12-03T06:23:14.788Z,64.60
2022-12-03T06:25:41.929Z,68.30
2022-12-03T06:28:09.107Z,71.72
2022-12-03T06:30:36.279Z,71.95
2022-12-03T06:33:03.383Z,71.05
2022-12-03T06:35:30.629Z,66.28
2022-12-03T06:37:57.916Z,62.78
2022-12-03T06:40:25.171Z,66.32
2022-12-03T06:42:52.546Z,67.63
2022-12-03T06:45:19.763Z,61.38
2022-12-03T06:47:47.085Z,63.40
2022-12-03T06:50:14.537Z,62.92
2022-12-03T06:52:41.704Z,53.20
2022-12-03T06:55:09.286Z,55.55
2022-12-03T06:57:36.430Z,57.53
2022-12-03T07:00:05.137Z,51.72
2022-12-03T07:02:32.302Z,55.80
2022-12-03T07:04:59.456Z,51.83
2022-12-03T07:07:26.679Z,53.72
2022-12-03T07:09:53.909Z,49.97
2022-12-03T07:12:21.146Z,42.75
2022-12-03T07:14:48.334Z,51.05
2022-12-03T07:17:15.588Z,49.00
2022-12-03T07:19:42.851Z,50.30
2022-12-03T07:22:10.011Z,53.28
2022-12-03T07:24:37.199Z,50.85
2022-12-03T07:27:04.436Z,45.75
2022-12-03T07:29:31.589Z,46.47
2022-12-03T07:31:58.883Z,42.30
2022-12-03T07:34:26.036Z,40.13
2022-12-03T07:36:53.184Z,44.40
2022-12-03T07:39:20.306Z,39.85
2022-12-03T07:41:47.458Z,45.80
2022-12-03T07:44:15.024Z,41.15
2022-12-03T07:46:42.634Z,43.20
2022-12-03T07:49:09.921Z,47.00
2022-12-03T07:51:37.257Z,37.33
2022-12-03T07:54:04.735Z,41.03
2022-12-03T07:56:31.876Z,46.60
2022-12-03T07:58:59.125Z,49.70
2022-12-03T08:01:26.417Z,48.90
2022-12-03T08:03:53.706Z,47.05
2022-12-03T08:06:20.917Z,44.85
2022-12-03T08:08:48.058Z,42.08
2022-12-03T08:11:15.881Z,43.30
2022-12-03T08:13:43.305Z,39.95
2022-12-03T08:16:14.835Z,42.72
2022-12-03T08:18:42.096Z,47.00
2022-12-03T08:21:16.840Z,47.25
2022-12-03T08:23:44.253Z,45.42
2022-12-03T08:26:16.438Z,43.33
2022-12-03T08:28:44.113Z,42.60
2022-12-03T08:31:19.618Z,46.42
2022-12-03T08:33:51.274Z,42.78
2022-12-03T08:36:21.551Z,43.17
2022-12-03T08:38:53.342Z,43.67
2022-12-03T08:41:40.598Z,38.60
2022-12-03T08:44:15.508Z,42.92
2022-12-03T08:46:42.649Z,41.92
2022-12-03T08:49:12.346Z,44.10
2022-12-03T08:51:39.544Z,43.50
2022-12-03T08:54:13.564Z,45.95
2022-12-03T08:56:42.214Z,42.85
2022-12-03T08:59:21.919Z,47.67
2022-12-03T09:01:49.750Z,43.58
2022-12-03T09:04:22.902Z,48.67
2022-12-03T09:06:50.266Z,45.50
2022-12-03T09:09:17.592Z,40.63
2022-12-03T09:11:45.030Z,36.08
2022-12-03T09:14:18.093Z,41.65
2022-12-03T09:16:46.068Z,32.90
2022-12-03T09:19:13.383Z,41.55
2022-12-03T09:21:40.740Z,37.85
2022-12-03T09:24:08.112Z,36.90
2022-12-03T09:26:35.253Z,32.55
2022-12-03T09:29:05.263Z,36.78
2022-12-03T09:31:35.021Z,37.83
2022-12-03T09:34:03.007Z,35.92
2022-12-03T09:36:30.435Z,39.55
2022-12-03T09:38:58.496Z,38.40
2022-12-03T09:41:26.312Z,38.35
2022-12-03T09:44:15.802Z,38.35
2022-12-03T09:46:42.382Z,41.97
2022-12-03T09:49:15.867Z,38.65
2022-12-03T09:51:43.944Z,36.42
2022-12-03T09:54:12.219Z,37.47
2022-12-03T09:56:39.362Z,42.50
2022-12-03T09:59:07.514Z,43.58
2022-12-03T10:01:34.790Z,44.13
2022-12-03T10:04:02.381Z,40.47
2022-12-03T10:06:29.769Z,46.00
2022-12-03T10:08:57.236Z,44.53
2022-12-03T10:11:25.673Z,44.58
2022-12-03T10:13:56.751Z,49.83
2022-12-03T10:16:24.159Z,44.20
2022-12-03T10:18:53.207Z,42.17
2022-12-03T10:21:22.632Z,45.30
2022-12-03T10:23:55.040Z,46.30
2022-12-03T10:26:38.491Z,45.88
2022-12-03T10:29:12.607Z,46.72
2022-12-03T10:31:39.981Z,46.05
2022-12-03T10:34:07.130Z,38.72
2022-12-03T10:36:34.290Z,47.55
2022-12-03T10:39:07.611Z,46.10
2022-12-03T10:41:35.099Z,39.08
2022-12-03T10:44:19.071Z,46.08
2022-12-03T10:46:47.061Z,42.15
2022-12-03T10:49:18.484Z,43.38
2022-12-03T10:51:46.818Z,41.55
2022-12-03T10:54:24.138Z,44.72
2022-12-03T10:56:52.322Z,32.20
2022-12-03T10:59:21.414Z,44.47
2022-12-03T11:01:49.117Z,44.97
2022-12-03T11:04:24.222Z,42.30
2022-12-03T11:06:51.930Z,45.10
2022-12-03T11:09:20.925Z,48.42
2022-12-03T11:11:48.676Z,57.80
2022-12-03T11:14:35.819Z,46.30
2022-12-03T11:17:02.995Z,48.58
2022-12-03T11:19:50.519Z,52.30
2022-12-03T11:22:18.345Z,36.53
2022-12-03T11:24:45.481Z,56.47
2022-12-03T11:27:12.616Z,56.42
2022-12-03T11:29:52.076Z,45.33
2022-12-03T11:32:39.743Z,52.42
2022-12-03T11:35:09.735Z,45.97
2022-12-03T11:37:36.991Z,54.65
2022-12-03T11:40:24.352Z,55.63
2022-12-03T11:42:51.515Z,54.00
2022-12-03T11:45:35.263Z,56.33
2022-12-03T11:48:06.058Z,53.63
2022-12-03T11:50:39.408Z,58.55
2022-12-03T11:53:16.771Z,61.33
2022-12-03T11:56:04.175Z,57.28
2022-12-03T11:58:32.039Z,60.30
2022-12-03T12:01:00.289Z,55.75
2022-12-03T12:03:34.850Z,60.38
2022-12-03T12:06:03.300Z,56.00
2022-12-03T12:08:30.521Z,53.10
2022-12-03T12:10:57.719Z,53.20
2022-12-03T12:13:30.913Z,48.70
2022-12-03T12:16:08.344Z,52.22
2022-12-03T12:18:35.656Z,48.97
2022-12-03T12:21:21.715Z,50.15
2022-12-03T12:23:48.903Z,48.08
2022-12-03T12:26:16.185Z,38.75
2022-12-03T12:28:43.430Z,39.38
2022-12-03T12:31:13.759Z,41.05
2022-12-03T12:33:40.936Z,44.88
2022-12-03T12:36:11.162Z,45.03
2022-12-03T12:38:38.390Z,37.90
2022-12-03T12:41:08.326Z,45.88
2022-12-03T12:43:36.132Z,50.58
2022-12-03T12:46:45.481Z,51.03
2022-12-03T12:48:59.858Z,48.70
2022-12-03T12:51:27.285Z,53.63
2022-12-03T12:53:54.815Z,40.25
2022-12-03T12:56:26.655Z,45.50
2022-12-03T12:58:54.638Z,42.75
2022-12-03T13:01:23.952Z,47.25
2022-12-03T13:03:52.160Z,51.22
2022-12-03T13:06:22.239Z,47.65
2022-12-03T13:08:50.203Z,45.03
2022-12-03T13:11:29.701Z,41.97
2022-12-03T13:13:56.872Z,41.85
2022-12-03T13:16:25.169Z,50.75
2022-12-03T13:18:56.054Z,51.47
2022-12-03T13:21:25.050Z,46.03
2022-12-03T13:23:56.328Z,56.92
2022-12-03T13:26:34.514Z,51.17
2022-12-03T13:29:15.831Z,33.30
2022-12-03T13:31:47.875Z,55.72
2022-12-03T13:34:17.605Z,53.15
2022-12-03T13:36:48.404Z,48.88
2022-12-03T13:39:40.873Z,51.70
2022-12-03T13:42:32.760Z,47.38
2022-12-03T13:45:01.437Z,59.67
2022-12-03T13:47:28.700Z,52.00
2022-12-03T13:49:57.599Z,50.33
2022-12-03T13:52:25.953Z,46.20
2022-12-03T13:54:54.387Z,42.00
2022-12-03T13:57:21.737Z,43.28
2022-12-03T13:59:48.914Z,38.88
2022-12-03T14:02:16.327Z,36.55
2022-12-03T14:04:43.618Z,39.35
2022-12-03T14:07:10.824Z,34.28
2022-12-03T14:09:38.058Z,36.50
2022-12-03T14:12:24.103Z,32.20
2022-12-03T14:14:51.531Z,35.33
2022-12-03T14:17:18.720Z,39.15
2022-12-03T14:19:45.986Z,24.48
2022-12-03T14:22:13.268Z,36.42
2022-12-03T14:24:40.390Z,40.35
2022-12-03T14:27:07.579Z,36.28
2022-12-03T14:29:34.738Z,35.28
2022-12-03T14:32:02.070Z,34.38
2022-12-03T14:34:29.335Z,38.72
2022-12-03T14:36:56.638Z,36.03
2022-12-03T14:39:23.942Z,35.15
2022-12-03T14:42:09.701Z,31.55
2022-12-03T14:44:36.924Z,37.42
2022-12-03T14:47:04.118Z,35.88
2022-12-03T14:49:31.329Z,35.92
2022-12-03T14:51:58.507Z,38.75
2022-12-03T14:54:25.950Z,36.65
2022-12-03T14:56:53.166Z,30.45
2022-12-03T14:59:24.498Z,30.77
2022-12-03T15:01:54.756Z,41.13
2022-12-03T15:04:22.557Z,43.28
2022-12-03T15:06:50.007Z,37.05
2022-12-03T15:09:17.323Z,26.98
2022-12-03T15:11:46.362Z,28.90
2022-12-03T15:14:14.000Z,39.75
2022-12-03T15:16:41.267Z,32.47
2022-12-03T15:19:08.599Z,39.80
2022-12-03T15:21:35.906Z,37.08
2022-12-03T15:24:03.709Z,39.97
2022-12-03T15:26:31.029Z,36.53
2022-12-03T15:28:58.658Z,36.08
2022-12-03T15:31:25.968Z,40.45
2022-12-03T15:33:53.254Z,39.50
2022-12-03T15:36:20.532Z,38.58
2022-12-03T15:38:47.782Z,43.50
2022-12-03T15:41:21.547Z,43.90
2022-12-03T15:43:49.452Z,46.22
2022-12-03T15:46:16.839Z,43.65
2022-12-03T15:48:44.124Z,46.88
2022-12-03T15:51:11.320Z,49.25
2022-12-03T15:53:38.948Z,44.08
2022-12-03T15:56:06.317Z,39.95
2022-12-03T15:58:33.588Z,42.53
2022-12-03T16:01:01.109Z,45.58
2022-12-03T16:03:28.541Z,40.35
2022-12-03T16:05:55.969Z,46.10
2022-12-03T16:08:24.286Z,39.20
2022-12-03T16:10:51.756Z,39.80
2022-12-03T16:13:19.127Z,49.38
2022-12-03T16:15:46.503Z,38.85
2022-12-03T16:18:13.710Z,44.50
2022-12-03T16:20:40.985Z,45.15
2022-12-03T16:23:08.365Z,47.75
2022-12-03T16:25:35.619Z,51.22
2022-12-03T16:28:02.883Z,55.33
2022-12-03T16:30:30.118Z,45.90
2022-12-03T16:32:57.470Z,52.25
2022-12-03T16:35:24.715Z,52.63
2022-12-03T16:37:52.075Z,56.55
2022-12-03T16:40:19.236Z,59.05
2022-12-03T16:42:46.394Z,53.28
2022-12-03T16:45:16.259Z,54.05
2022-12-03T16:47:43.606Z,46.53
2022-12-03T16:50:16.473Z,38.75
2022-12-03T16:52:48.185Z,58.28
2022-12-03T16:55:15.462Z,47.08
2022-12-03T16:57:42.673Z,63.10
2022-12-03T17:00:10.138Z,50.72
2022-12-03T17:02:37.419Z,52.88
2022-12-03T17:05:04.721Z,54.03
2022-12-03T17:07:31.964Z,50.97
2022-12-03T17:09:59.222Z,63.83
2022-12-03T17:12:33.473Z,60.28
2022-12-03T17:15:13.689Z,56.97
2022-12-03T17:17:40.963Z,67.50
2022-12-03T17:20:08.646Z,58.78
2022-12-03T17:22:35.799Z,61.85
2022-12-03T17:25:02.946Z,69.72
2022-12-03T17:27:30.313Z,66.93
2022-12-03T17:29:57.521Z,66.90
2022-12-03T17:32:24.645Z,66.43
2022-12-03T17:34:51.814Z,59.47
2022-12-03T17:37:18.996Z,65.72
2022-12-03T17:39:46.211Z,79.35
2022-12-03T17:42:13.490Z,69.40
2022-12-03T17:44:40.763Z,83.15
2022-12-03T17:47:07.911Z,61.90
2022-12-03T17:49:35.153Z,67.85
2022-12-03T17:52:02.385Z,63.05
2022-12-03T17:54:49.098Z,46.38
2022-12-03T17:57:17.007Z,49.65
2022-12-03T17:59:44.267Z,49.55
2022-12-03T18:02:11.512Z,52.17
2022-12-03T18:04:38.815Z,58.28
2022-12-03T18:07:06.120Z,61.22
2022-12-03T18:09:33.284Z,54.95
2022-12-03T18:12:00.490Z,61.40
2022-12-03T18:14:27.783Z,56.85
2022-12-03T18:16:56.067Z,69.55
2022-12-03T18:19:23.319Z,61.10
2022-12-03T18:21:50.458Z,65.88
2022-12-03T18:24:17.683Z,71.55
2022-12-03T18:26:44.894Z,45.45
2022-12-03T18:29:12.086Z,52.42
2022-12-03T18:31:39.759Z,62.65
2022-12-03T18:34:06.988Z,68.55
2022-12-03T18:36:36.150Z,72.93
2022-12-03T18:39:04.492Z,55.85
2022-12-03T18:41:32.386Z,50.83
2022-12-03T18:43:59.675Z,67.63
2022-12-03T18:46:54.897Z,66.35
2022-12-03T18:49:14.086Z,74.45
2022-12-03T18:51:41.315Z,75.70
2022-12-03T18:54:14.582Z,77.15
2022-12-03T18:56:42.057Z,67.75
2022-12-03T18:59:09.453Z,61.55
2022-12-03T19:01:36.712Z,76.03
2022-12-03T19:04:03.967Z,79.25
2022-12-03T19:06:31.225Z,75.72
2022-12-03T19:08:58.596Z,64.30
2022-12-03T19:11:26.087Z,51.97
2022-12-03T19:13:53.353Z,71.15
2022-12-03T19:16:20.746Z,69.70
2022-12-03T19:18:48.454Z,59.95
2022-12-03T19:21:16.861Z,69.75
2022-12-03T19:24:04.248Z,63.85
2022-12-03T19:26:32.532Z,72.97
2022-12-03T19:28:59.686Z,68.03
2022-12-03T19:31:26.883Z,72.97
2022-12-03T19:33:54.400Z,75.55
2022-12-03T19:36:22.949Z,75.20
2022-12-03T19:38:56.599Z,73.93
2022-12-03T19:41:24.256Z,80.97
2022-12-03T19:43:52.258Z,71.40
2022-12-03T19:46:20.521Z,79.38
2022-12-03T19:48:48.154Z,53.28
2022-12-03T19:51:33.467Z,62.65
2022-12-03T19:54:01.751Z,77.47
2022-12-03T19:56:30.497Z,61.67
2022-12-03T19:58:58.242Z,48.80
2022-12-03T20:01:29.430Z,58.40
2022-12-03T20:03:57.597Z,61.38
2022-12-03T20:06:26.697Z,66.13
2022-12-03T20:09:00.841Z,70.70
2022-12-03T20:11:29.981Z,57.33
2022-12-03T20:13:58.441Z,68.15
2022-12-03T20:16:26.198Z,64.85
2022-12-03T20:18:56.667Z,69.93
2022-12-03T20:21:24.053Z,56.80
2022-12-03T20:23:51.272Z,60.90
2022-12-03T20:26:19.333Z,44.90
2022-12-03T20:28:47.955Z,61.05
2022-12-03T20:31:16.753Z,62.70
2022-12-03T20:33:45.804Z,57.17
2022-12-03T20:36:14.313Z,58.38
2022-12-03T20:38:41.869Z,65.57
2022-12-03T20:41:10.259Z,64.20
2022-12-03T20:43:37.450Z,76.68
2022-12-03T20:46:15.248Z,59.80
2022-12-03T20:48:43.356Z,70.38
2022-12-03T20:51:11.649Z,73.45
2022-12-03T20:53:38.927Z,71.20
2022-12-03T20:56:06.768Z,68.03
2022-12-03T20:58:34.350Z,71.88
2022-12-03T21:01:27.910Z,71.75
2022-12-03T21:03:56.246Z,63.45
2022-12-03T21:06:24.915Z,64.63
2022-12-03T21:08:55.611Z,64.10
2022-12-03T21:11:24.195Z,49.83
2022-12-03T21:13:51.712Z,67.82
2022-12-03T21:16:52.512Z,54.00
2022-12-03T21:19:17.951Z,61.42
2022-12-03T21:21:45.303Z,62.33
2022-12-03T21:24:13.601Z,60.72
2022-12-03T21:26:41.257Z,52.05
2022-12-03T21:29:08.829Z,62.58
2022-12-03T21:31:38.396Z,66.63
2022-12-03T21:34:05.766Z,60.38
2022-12-03T21:36:33.065Z,52.15
2022-12-03T21:39:00.576Z,67.30
2022-12-03T21:41:27.889Z,57.63
2022-12-03T21:43:55.016Z,59.70
2022-12-03T21:47:10.720Z,60.45
2022-12-03T21:49:09.659Z,59.50
2022-12-03T21:51:37.101Z,51.38
2022-12-03T21:54:04.372Z,58.35
2022-12-03T21:56:33.060Z,52.17
2022-12-03T21:59:00.321Z,54.90
2022-12-03T22:01:27.669Z,53.95
2022-12-03T22:03:54.930Z,52.97
2022-12-03T22:06:22.394Z,59.42
2022-12-03T22:08:49.738Z,49.20
2022-12-03T22:11:18.225Z,43.00
2022-12-03T22:13:45.578Z,45.53
2022-12-03T22:16:14.384Z,53.38
2022-12-03T22:18:42.391Z,49.33
2022-12-03T22:21:10.913Z,51.03
2022-12-03T22:23:38.641Z,50.55
2022-12-03T22:26:07.282Z,39.08
2022-12-03T22:28:34.981Z,49.70
2022-12-03T22:31:09.251Z,35.92
2022-12-03T22:33:37.394Z,55.35
2022-12-03T22:36:06.200Z,46.42
2022-12-03T22:38:33.770Z,59.33
2022-12-03T22:41:01.375Z,55.60
2022-12-03T22:43:28.637Z,54.75
2022-12-03T22:45:56.453Z,59.20
2022-12-03T22:48:24.370Z,56.20
2022-12-03T22:50:52.948Z,44.90
2022-12-03T22:53:20.709Z,55.85
2022-12-03T22:55:57.910Z,53.38
2022-12-03T22:58:25.977Z,44.05
2022-12-03T23:00:54.568Z,47.60
2022-12-03T23:03:23.848Z,52.75
2022-12-03T23:05:51.274Z,38.08
2022-12-03T23:08:19.961Z,58.72
2022-12-03T23:10:48.723Z,55.95
2022-12-03T23:13:16.739Z,58.45
2022-12-03T23:15:45.660Z,65.20
2022-12-03T23:18:13.070Z,58.00
2022-12-03T23:20:47.866Z,57.42
2022-12-03T23:23:15.454Z,61.97
2022-12-03T23:25:42.757Z,61.03
2022-12-03T23:28:10.880Z,59.92
2022-12-03T23:30:39.006Z,66.75
2022-12-03T23:33:07.031Z,70.57
2022-12-03T23:35:34.846Z,61.17
2022-12-03T23:38:02.132Z,67.80
2022-12-03T23:40:29.260Z,54.22
2022-12-03T23:42:56.614Z,43.42
2022-12-03T23:45:23.999Z,65.18
2022-12-03T23:47:55.094Z,53.35
2022-12-03T23:50:25.492Z,53.15
2022-12-03T23:52:52.901Z,64.28
2022-12-03T23:55:20.222Z,34.05
2022-12-03T23:57:47.686Z,63.05
